sensor_id;sensor_type;location;lat;lon;timestamp;P1;durP1;ratioP1;P2;durP2;ratioP2
23358;SDS011;11851;50.796;4.372;2022-10-16T00:01:18;1.92;;;0.80;;
23358;SDS011;11851;50.796;4.372;2022-10-16T00:03:46;1.83;;;0.80;;
23358;SDS011;11851;50.796;4.372;2022-10-16T00:06:12;5.22;;;0.80;;
23358;SDS011;11851;50.796;4.372;2022-10-16T00:08:39;2.25;;;0.82;;
23358;SDS011;11851;50.796;4.372;2022-10-16T00:11:10;4.53;;;1.20;;
23358;SDS011;11851;50.796;4.372;2022-10-16T00:13:39;3.42;;;0.90;;
23358;SDS011;11851;50.796;4.372;2022-10-16T00:16:06;3.25;;;1.08;;
23358;SDS011;11851;50.796;4.372;2022-10-16T00:18:32;2.20;;;1.20;;
23358;SDS011;11851;50.796;4.372;2022-10-16T00:21:05;1.63;;;1.05;;
23358;SDS011;11851;50.796;4.372;2022-10-16T00:23:35;2.63;;;1.08;;
23358;SDS011;11851;50.796;4.372;2022-10-16T00:26:02;4.88;;;0.95;;
23358;SDS011;11851;50.796;4.372;2022-10-16T00:28:30;2.65;;;1.08;;
23358;SDS011;11851;50.796;4.372;2022-10-16T00:30:56;1.60;;;0.82;;
23358;SDS011;11851;50.796;4.372;2022-10-16T00:33:22;3.92;;;0.95;;
23358;SDS011;11851;50.796;4.372;2022-10-16T00:35:48;2.03;;;1.30;;
23358;SDS011;11851;50.796;4.372;2022-10-16T00:38:14;3.47;;;1.13;;
23358;SDS011;11851;50.796;4.372;2022-10-16T00:40:40;1.75;;;1.00;;
23358;SDS011;11851;50.796;4.372;2022-10-16T00:43:12;4.75;;;1.15;;
23358;SDS011;11851;50.796;4.372;2022-10-16T00:45:56;3.90;;;1.27;;
23358;SDS011;11851;50.796;4.372;2022-10-16T00:48:22;3.10;;;0.93;;
23358;SDS011;11851;50.796;4.372;2022-10-16T00:50:48;3.00;;;1.33;;
23358;SDS011;11851;50.796;4.372;2022-10-16T00:53:13;4.20;;;1.20;;
23358;SDS011;11851;50.796;4.372;2022-10-16T00:55:41;1.50;;;1.00;;
23358;SDS011;11851;50.796;4.372;2022-10-16T00:58:06;2.70;;;1.23;;
23358;SDS011;11851;50.796;4.372;2022-10-16T01:00:32;1.67;;;1.00;;
23358;SDS011;11851;50.796;4.372;2022-10-16T01:02:59;4.07;;;1.10;;
23358;SDS011;11851;50.796;4.372;2022-10-16T01:05:28;3.60;;;1.17;;
23358;SDS011;11851;50.796;4.372;2022-10-16T01:11:01;2.97;;;1.20;;
23358;SDS011;11851;50.796;4.372;2022-10-16T01:13:32;4.18;;;1.20;;
23358;SDS011;11851;50.796;4.372;2022-10-16T01:16:12;2.88;;;1.10;;
23358;SDS011;11851;50.796;4.372;2022-10-16T01:18:44;6.78;;;1.40;;
23358;SDS011;11851;50.796;4.372;2022-10-16T01:21:27;4.20;;;1.02;;
23358;SDS011;11851;50.796;4.372;2022-10-16T01:24:06;2.50;;;1.23;;
23358;SDS011;11851;50.796;4.372;2022-10-16T01:35:18;1.77;;;0.95;;
23358;SDS011;11851;50.796;4.372;2022-10-16T01:40:52;3.10;;;1.30;;
23358;SDS011;11851;50.796;4.372;2022-10-16T01:46:23;3.60;;;1.30;;
23358;SDS011;11851;50.796;4.372;2022-10-16T01:48:51;3.22;;;1.15;;
23358;SDS011;11851;50.796;4.372;2022-10-16T01:51:18;4.18;;;1.20;;
23358;SDS011;11851;50.796;4.372;2022-10-16T01:53:47;4.72;;;1.50;;
23358;SDS011;11851;50.796;4.372;2022-10-16T01:56:16;3.88;;;1.27;;
23358;SDS011;11851;50.796;4.372;2022-10-16T01:58:53;3.15;;;1.52;;
23358;SDS011;11851;50.796;4.372;2022-10-16T02:01:33;4.85;;;1.50;;
23358;SDS011;11851;50.796;4.372;2022-10-16T02:04:04;3.38;;;1.60;;
23358;SDS011;11851;50.796;4.372;2022-10-16T02:06:36;4.05;;;1.30;;
23358;SDS011;11851;50.796;4.372;2022-10-16T02:09:02;6.45;;;1.48;;
23358;SDS011;11851;50.796;4.372;2022-10-16T02:11:28;5.88;;;1.40;;
23358;SDS011;11851;50.796;4.372;2022-10-16T02:13:55;3.42;;;1.40;;
23358;SDS011;11851;50.796;4.372;2022-10-16T02:16:32;4.68;;;1.60;;
23358;SDS011;11851;50.796;4.372;2022-10-16T02:19:00;6.38;;;1.65;;
23358;SDS011;11851;50.796;4.372;2022-10-16T02:21:26;5.05;;;1.85;;
23358;SDS011;11851;50.796;4.372;2022-10-16T02:29:24;2.92;;;1.45;;
23358;SDS011;11851;50.796;4.372;2022-10-16T02:31:53;6.60;;;1.80;;
23358;SDS011;11851;50.796;4.372;2022-10-16T02:34:26;2.60;;;1.48;;
23358;SDS011;11851;50.796;4.372;2022-10-16T02:36:55;5.80;;;1.70;;
23358;SDS011;11851;50.796;4.372;2022-10-16T02:39:23;7.57;;;1.52;;
23358;SDS011;11851;50.796;4.372;2022-10-16T02:41:49;5.28;;;1.77;;
23358;SDS011;11851;50.796;4.372;2022-10-16T02:44:15;4.38;;;1.73;;
23358;SDS011;11851;50.796;4.372;2022-10-16T02:46:40;3.38;;;1.60;;
23358;SDS011;11851;50.796;4.372;2022-10-16T02:49:06;3.67;;;1.77;;
23358;SDS011;11851;50.796;4.372;2022-10-16T02:51:32;3.10;;;1.83;;
23358;SDS011;11851;50.796;4.372;2022-10-16T02:53:57;6.47;;;1.88;;
23358;SDS011;11851;50.796;4.372;2022-10-16T02:56:23;9.27;;;2.22;;
23358;SDS011;11851;50.796;4.372;2022-10-16T02:58:49;14.05;;;1.90;;
23358;SDS011;11851;50.796;4.372;2022-10-16T03:01:14;4.70;;;1.98;;
23358;SDS011;11851;50.796;4.372;2022-10-16T03:03:41;5.82;;;2.00;;
23358;SDS011;11851;50.796;4.372;2022-10-16T03:06:07;7.38;;;1.92;;
23358;SDS011;11851;50.796;4.372;2022-10-16T03:08:33;3.78;;;2.00;;
23358;SDS011;11851;50.796;4.372;2022-10-16T03:10:59;6.05;;;2.05;;
23358;SDS011;11851;50.796;4.372;2022-10-16T03:13:24;7.45;;;1.67;;
23358;SDS011;11851;50.796;4.372;2022-10-16T03:15:50;5.13;;;1.92;;
23358;SDS011;11851;50.796;4.372;2022-10-16T03:18:16;2.90;;;1.65;;
23358;SDS011;11851;50.796;4.372;2022-10-16T03:20:44;6.85;;;1.88;;
23358;SDS011;11851;50.796;4.372;2022-10-16T03:23:10;6.03;;;1.88;;
23358;SDS011;11851;50.796;4.372;2022-10-16T03:25:36;7.18;;;1.63;;
23358;SDS011;11851;50.796;4.372;2022-10-16T03:28:02;11.88;;;1.83;;
23358;SDS011;11851;50.796;4.372;2022-10-16T03:30:28;9.77;;;1.63;;
23358;SDS011;11851;50.796;4.372;2022-10-16T03:32:54;6.00;;;1.80;;
23358;SDS011;11851;50.796;4.372;2022-10-16T03:35:23;5.68;;;2.10;;
23358;SDS011;11851;50.796;4.372;2022-10-16T03:37:49;2.90;;;1.75;;
23358;SDS011;11851;50.796;4.372;2022-10-16T03:40:15;9.10;;;2.08;;
23358;SDS011;11851;50.796;4.372;2022-10-16T03:42:42;6.57;;;1.95;;
23358;SDS011;11851;50.796;4.372;2022-10-16T03:45:08;4.20;;;1.88;;
23358;SDS011;11851;50.796;4.372;2022-10-16T03:47:34;3.72;;;1.70;;
23358;SDS011;11851;50.796;4.372;2022-10-16T03:50:00;4.38;;;1.60;;
23358;SDS011;11851;50.796;4.372;2022-10-16T03:52:26;7.13;;;2.10;;
23358;SDS011;11851;50.796;4.372;2022-10-16T03:54:52;5.25;;;2.00;;
23358;SDS011;11851;50.796;4.372;2022-10-16T03:57:18;6.03;;;2.00;;
23358;SDS011;11851;50.796;4.372;2022-10-16T03:59:43;5.63;;;2.08;;
23358;SDS011;11851;50.796;4.372;2022-10-16T04:02:09;5.50;;;2.00;;
23358;SDS011;11851;50.796;4.372;2022-10-16T04:04:35;6.43;;;1.90;;
23358;SDS011;11851;50.796;4.372;2022-10-16T04:07:01;6.40;;;2.08;;
23358;SDS011;11851;50.796;4.372;2022-10-16T04:09:26;6.80;;;2.72;;
23358;SDS011;11851;50.796;4.372;2022-10-16T04:11:52;8.35;;;1.90;;
23358;SDS011;11851;50.796;4.372;2022-10-16T04:14:18;5.50;;;1.90;;
23358;SDS011;11851;50.796;4.372;2022-10-16T04:16:43;3.20;;;1.75;;
23358;SDS011;11851;50.796;4.372;2022-10-16T04:19:09;5.13;;;2.20;;
23358;SDS011;11851;50.796;4.372;2022-10-16T04:21:36;5.35;;;1.90;;
23358;SDS011;11851;50.796;4.372;2022-10-16T04:24:02;6.13;;;2.00;;
23358;SDS011;11851;50.796;4.372;2022-10-16T04:26:28;7.68;;;1.98;;
23358;SDS011;11851;50.796;4.372;2022-10-16T04:28:54;7.97;;;2.15;;
23358;SDS011;11851;50.796;4.372;2022-10-16T04:31:19;5.07;;;1.88;;
23358;SDS011;11851;50.796;4.372;2022-10-16T04:33:45;4.07;;;1.90;;
23358;SDS011;11851;50.796;4.372;2022-10-16T04:36:11;6.57;;;2.45;;
23358;SDS011;11851;50.796;4.372;2022-10-16T04:38:37;9.20;;;2.30;;
23358;SDS011;11851;50.796;4.372;2022-10-16T04:41:04;3.42;;;2.13;;
23358;SDS011;11851;50.796;4.372;2022-10-16T04:43:33;9.57;;;2.38;;
23358;SDS011;11851;50.796;4.372;2022-10-16T04:45:59;9.50;;;1.90;;
23358;SDS011;11851;50.796;4.372;2022-10-16T04:48:25;6.90;;;2.00;;
23358;SDS011;11851;50.796;4.372;2022-10-16T04:50:51;10.27;;;3.00;;
23358;SDS011;11851;50.796;4.372;2022-10-16T04:53:17;5.32;;;1.90;;
23358;SDS011;11851;50.796;4.372;2022-10-16T04:55:42;4.55;;;1.92;;
23358;SDS011;11851;50.796;4.372;2022-10-16T04:58:08;6.20;;;1.80;;
23358;SDS011;11851;50.796;4.372;2022-10-16T05:00:34;7.53;;;2.90;;
23358;SDS011;11851;50.796;4.372;2022-10-16T05:03:00;11.10;;;2.65;;
23358;SDS011;11851;50.796;4.372;2022-10-16T05:05:26;7.10;;;2.22;;
23358;SDS011;11851;50.796;4.372;2022-10-16T05:07:53;4.70;;;1.90;;
23358;SDS011;11851;50.796;4.372;2022-10-16T05:10:19;5.30;;;2.28;;
23358;SDS011;11851;50.796;4.372;2022-10-16T05:12:45;7.15;;;2.03;;
23358;SDS011;11851;50.796;4.372;2022-10-16T05:15:11;6.43;;;2.60;;
23358;SDS011;11851;50.796;4.372;2022-10-16T05:17:37;5.90;;;2.20;;
23358;SDS011;11851;50.796;4.372;2022-10-16T05:20:03;7.40;;;2.30;;
23358;SDS011;11851;50.796;4.372;2022-10-16T05:22:29;4.53;;;2.63;;
23358;SDS011;11851;50.796;4.372;2022-10-16T05:24:54;6.00;;;1.95;;
23358;SDS011;11851;50.796;4.372;2022-10-16T05:27:20;5.80;;;2.05;;
23358;SDS011;11851;50.796;4.372;2022-10-16T05:29:46;5.70;;;2.05;;
23358;SDS011;11851;50.796;4.372;2022-10-16T05:32:16;7.90;;;2.63;;
23358;SDS011;11851;50.796;4.372;2022-10-16T05:34:43;5.38;;;2.42;;
23358;SDS011;11851;50.796;4.372;2022-10-16T05:37:09;7.55;;;2.67;;
23358;SDS011;11851;50.796;4.372;2022-10-16T05:39:36;4.70;;;2.33;;
23358;SDS011;11851;50.796;4.372;2022-10-16T05:42:02;8.15;;;2.50;;
23358;SDS011;11851;50.796;4.372;2022-10-16T05:44:29;9.13;;;2.30;;
23358;SDS011;11851;50.796;4.372;2022-10-16T05:46:54;7.90;;;2.45;;
23358;SDS011;11851;50.796;4.372;2022-10-16T05:49:20;6.70;;;2.20;;
23358;SDS011;11851;50.796;4.372;2022-10-16T05:51:46;4.45;;;2.20;;
23358;SDS011;11851;50.796;4.372;2022-10-16T05:54:11;5.57;;;2.63;;
23358;SDS011;11851;50.796;4.372;2022-10-16T05:56:37;7.82;;;2.47;;
23358;SDS011;11851;50.796;4.372;2022-10-16T05:59:03;6.43;;;2.20;;
23358;SDS011;11851;50.796;4.372;2022-10-16T06:01:29;5.95;;;2.42;;
23358;SDS011;11851;50.796;4.372;2022-10-16T06:03:56;5.07;;;2.30;;
23358;SDS011;11851;50.796;4.372;2022-10-16T06:06:25;5.80;;;2.53;;
23358;SDS011;11851;50.796;4.372;2022-10-16T06:08:53;9.25;;;2.75;;
23358;SDS011;11851;50.796;4.372;2022-10-16T06:11:20;6.82;;;2.50;;
23358;SDS011;11851;50.796;4.372;2022-10-16T06:13:51;12.68;;;2.15;;
23358;SDS011;11851;50.796;4.372;2022-10-16T06:16:22;8.32;;;2.75;;
23358;SDS011;11851;50.796;4.372;2022-10-16T06:18:50;6.43;;;2.30;;
23358;SDS011;11851;50.796;4.372;2022-10-16T06:21:17;8.48;;;2.35;;
23358;SDS011;11851;50.796;4.372;2022-10-16T06:23:44;4.68;;;2.08;;
23358;SDS011;11851;50.796;4.372;2022-10-16T06:26:14;7.45;;;2.75;;
23358;SDS011;11851;50.796;4.372;2022-10-16T06:28:41;5.07;;;2.20;;
23358;SDS011;11851;50.796;4.372;2022-10-16T06:31:08;5.68;;;2.50;;
23358;SDS011;11851;50.796;4.372;2022-10-16T06:33:35;6.82;;;2.28;;
23358;SDS011;11851;50.796;4.372;2022-10-16T06:36:08;5.40;;;2.08;;
23358;SDS011;11851;50.796;4.372;2022-10-16T06:38:36;6.72;;;2.35;;
23358;SDS011;11851;50.796;4.372;2022-10-16T06:41:03;7.35;;;2.00;;
23358;SDS011;11851;50.796;4.372;2022-10-16T06:43:30;6.68;;;2.00;;
23358;SDS011;11851;50.796;4.372;2022-10-16T06:46:02;11.30;;;2.63;;
23358;SDS011;11851;50.796;4.372;2022-10-16T06:48:29;7.05;;;2.20;;
23358;SDS011;11851;50.796;4.372;2022-10-16T06:53:26;8.63;;;2.30;;
23358;SDS011;11851;50.796;4.372;2022-10-16T06:55:54;3.35;;;1.80;;
23358;SDS011;11851;50.796;4.372;2022-10-16T06:58:21;8.30;;;2.42;;
23358;SDS011;11851;50.796;4.372;2022-10-16T07:00:46;4.32;;;2.08;;
23358;SDS011;11851;50.796;4.372;2022-10-16T07:03:12;4.60;;;1.80;;
23358;SDS011;11851;50.796;4.372;2022-10-16T07:05:39;6.32;;;2.35;;
23358;SDS011;11851;50.796;4.372;2022-10-16T07:08:05;6.10;;;1.80;;
23358;SDS011;11851;50.796;4.372;2022-10-16T07:10:32;4.32;;;1.95;;
23358;SDS011;11851;50.796;4.372;2022-10-16T07:12:58;5.72;;;1.92;;
23358;SDS011;11851;50.796;4.372;2022-10-16T07:15:24;7.10;;;1.95;;
23358;SDS011;11851;50.796;4.372;2022-10-16T07:17:50;6.72;;;2.00;;
23358;SDS011;11851;50.796;4.372;2022-10-16T07:20:16;7.30;;;1.90;;
23358;SDS011;11851;50.796;4.372;2022-10-16T07:22:42;3.92;;;2.00;;
23358;SDS011;11851;50.796;4.372;2022-10-16T07:25:08;4.10;;;1.77;;
23358;SDS011;11851;50.796;4.372;2022-10-16T07:27:33;6.85;;;1.88;;
23358;SDS011;11851;50.796;4.372;2022-10-16T07:29:59;5.65;;;2.00;;
23358;SDS011;11851;50.796;4.372;2022-10-16T07:32:25;7.30;;;1.90;;
23358;SDS011;11851;50.796;4.372;2022-10-16T07:34:51;4.50;;;1.67;;
23358;SDS011;11851;50.796;4.372;2022-10-16T07:37:18;6.60;;;1.85;;
23358;SDS011;11851;50.796;4.372;2022-10-16T07:39:43;7.25;;;2.10;;
23358;SDS011;11851;50.796;4.372;2022-10-16T07:42:09;4.40;;;1.83;;
23358;SDS011;11851;50.796;4.372;2022-10-16T07:44:34;4.00;;;1.70;;
23358;SDS011;11851;50.796;4.372;2022-10-16T07:47:00;10.48;;;2.00;;
23358;SDS011;11851;50.796;4.372;2022-10-16T07:49:26;8.05;;;2.10;;
23358;SDS011;11851;50.796;4.372;2022-10-16T07:51:51;6.47;;;2.15;;
23358;SDS011;11851;50.796;4.372;2022-10-16T07:54:17;5.20;;;1.92;;
23358;SDS011;11851;50.796;4.372;2022-10-16T07:56:42;6.75;;;2.17;;
23358;SDS011;11851;50.796;4.372;2022-10-16T07:59:08;6.90;;;2.10;;
23358;SDS011;11851;50.796;4.372;2022-10-16T08:01:34;8.43;;;2.08;;
23358;SDS011;11851;50.796;4.372;2022-10-16T08:03:59;6.25;;;2.50;;
23358;SDS011;11851;50.796;4.372;2022-10-16T08:06:25;5.78;;;2.85;;
23358;SDS011;11851;50.796;4.372;2022-10-16T08:08:51;9.23;;;2.20;;
23358;SDS011;11851;50.796;4.372;2022-10-16T08:11:17;5.65;;;2.17;;
23358;SDS011;11851;50.796;4.372;2022-10-16T08:13:42;3.97;;;1.73;;
23358;SDS011;11851;50.796;4.372;2022-10-16T08:16:08;5.95;;;2.30;;
23358;SDS011;11851;50.796;4.372;2022-10-16T08:18:35;6.65;;;2.10;;
23358;SDS011;11851;50.796;4.372;2022-10-16T08:21:01;6.70;;;2.10;;
23358;SDS011;11851;50.796;4.372;2022-10-16T08:23:28;9.82;;;2.05;;
23358;SDS011;11851;50.796;4.372;2022-10-16T08:25:54;5.72;;;2.22;;
23358;SDS011;11851;50.796;4.372;2022-10-16T08:28:20;5.97;;;1.65;;
23358;SDS011;11851;50.796;4.372;2022-10-16T08:30:47;11.02;;;1.88;;
23358;SDS011;11851;50.796;4.372;2022-10-16T08:33:13;5.05;;;1.60;;
23358;SDS011;11851;50.796;4.372;2022-10-16T08:35:39;5.28;;;1.60;;
23358;SDS011;11851;50.796;4.372;2022-10-16T08:38:05;6.25;;;1.70;;
23358;SDS011;11851;50.796;4.372;2022-10-16T08:40:31;6.35;;;1.35;;
23358;SDS011;11851;50.796;4.372;2022-10-16T08:46:04;6.00;;;1.83;;
23358;SDS011;11851;50.796;4.372;2022-10-16T08:51:15;7.40;;;1.60;;
23358;SDS011;11851;50.796;4.372;2022-10-16T08:53:58;8.15;;;1.60;;
23358;SDS011;11851;50.796;4.372;2022-10-16T08:56:28;4.90;;;1.50;;
23358;SDS011;11851;50.796;4.372;2022-10-16T08:58:54;5.75;;;1.40;;
23358;SDS011;11851;50.796;4.372;2022-10-16T09:01:21;8.10;;;1.17;;
23358;SDS011;11851;50.796;4.372;2022-10-16T09:16:18;10.77;;;1.50;;
23358;SDS011;11851;50.796;4.372;2022-10-16T09:21:23;8.32;;;1.33;;
23358;SDS011;11851;50.796;4.372;2022-10-16T09:23:57;4.35;;;1.42;;
23358;SDS011;11851;50.796;4.372;2022-10-16T09:26:45;3.30;;;1.23;;
23358;SDS011;11851;50.796;4.372;2022-10-16T09:29:11;5.00;;;1.23;;
23358;SDS011;11851;50.796;4.372;2022-10-16T09:31:38;7.00;;;1.40;;
23358;SDS011;11851;50.796;4.372;2022-10-16T09:34:05;5.95;;;1.30;;
23358;SDS011;11851;50.796;4.372;2022-10-16T09:36:40;4.03;;;1.30;;
23358;SDS011;11851;50.796;4.372;2022-10-16T09:39:10;10.57;;;1.85;;
23358;SDS011;11851;50.796;4.372;2022-10-16T09:41:41;5.18;;;1.35;;
23358;SDS011;11851;50.796;4.372;2022-10-16T09:44:19;6.45;;;1.55;;
23358;SDS011;11851;50.796;4.372;2022-10-16T09:47:11;6.65;;;1.77;;
23358;SDS011;11851;50.796;4.372;2022-10-16T09:49:59;5.57;;;1.10;;
23358;SDS011;11851;50.796;4.372;2022-10-16T09:52:31;5.57;;;1.52;;
23358;SDS011;11851;50.796;4.372;2022-10-16T09:54:58;7.38;;;1.10;;
23358;SDS011;11851;50.796;4.372;2022-10-16T09:57:26;6.00;;;1.42;;
23358;SDS011;11851;50.796;4.372;2022-10-16T09:59:53;10.95;;;1.80;;
23358;SDS011;11851;50.796;4.372;2022-10-16T10:02:26;7.78;;;1.58;;
23358;SDS011;11851;50.796;4.372;2022-10-16T10:05:00;7.97;;;1.52;;
23358;SDS011;11851;50.796;4.372;2022-10-16T10:07:33;9.82;;;1.35;;
23358;SDS011;11851;50.796;4.372;2022-10-16T10:10:05;4.75;;;1.13;;
23358;SDS011;11851;50.796;4.372;2022-10-16T10:12:44;7.88;;;1.42;;
23358;SDS011;11851;50.796;4.372;2022-10-16T10:15:11;4.78;;;1.63;;
23358;SDS011;11851;50.796;4.372;2022-10-16T10:22:57;4.15;;;1.20;;
23358;SDS011;11851;50.796;4.372;2022-10-16T10:25:26;5.45;;;1.38;;
23358;SDS011;11851;50.796;4.372;2022-10-16T10:44:27;10.55;;;1.38;;
23358;SDS011;11851;50.796;4.372;2022-10-16T10:47:19;5.18;;;1.15;;
23358;SDS011;11851;50.796;4.372;2022-10-16T10:56:36;6.70;;;1.45;;
23358;SDS011;11851;50.796;4.372;2022-10-16T11:01:54;3.78;;;1.20;;
23358;SDS011;11851;50.796;4.372;2022-10-16T11:07:18;6.20;;;1.10;;
23358;SDS011;11851;50.796;4.372;2022-10-16T11:09:53;8.98;;;1.48;;
23358;SDS011;11851;50.796;4.372;2022-10-16T11:12:29;4.03;;;1.13;;
23358;SDS011;11851;50.796;4.372;2022-10-16T11:15:12;3.90;;;1.13;;
23358;SDS011;11851;50.796;4.372;2022-10-16T11:17:44;5.65;;;1.25;;
23358;SDS011;11851;50.796;4.372;2022-10-16T11:20:28;6.70;;;1.00;;
23358;SDS011;11851;50.796;4.372;2022-10-16T11:25:42;4.78;;;0.90;;
23358;SDS011;11851;50.796;4.372;2022-10-16T11:28:19;4.18;;;1.00;;
23358;SDS011;11851;50.796;4.372;2022-10-16T11:38:58;5.47;;;1.45;;
23358;SDS011;11851;50.796;4.372;2022-10-16T11:44:13;2.28;;;1.20;;
23358;SDS011;11851;50.796;4.372;2022-10-16T11:46:40;3.88;;;1.00;;
23358;SDS011;11851;50.796;4.372;2022-10-16T11:49:18;7.60;;;1.00;;
23358;SDS011;11851;50.796;4.372;2022-10-16T11:51:52;3.63;;;1.48;;
23358;SDS011;11851;50.796;4.372;2022-10-16T11:54:47;4.30;;;1.08;;
23358;SDS011;11851;50.796;4.372;2022-10-16T11:57:33;4.22;;;1.20;;
23358;SDS011;11851;50.796;4.372;2022-10-16T12:00:05;3.53;;;1.05;;
23358;SDS011;11851;50.796;4.372;2022-10-16T12:02:51;3.28;;;0.73;;
23358;SDS011;11851;50.796;4.372;2022-10-16T12:05:20;5.22;;;1.10;;
23358;SDS011;11851;50.796;4.372;2022-10-16T12:08:12;2.55;;;0.80;;
23358;SDS011;11851;50.796;4.372;2022-10-16T12:10:41;6.45;;;0.85;;
23358;SDS011;11851;50.796;4.372;2022-10-16T12:18:39;5.35;;;1.10;;
23358;SDS011;11851;50.796;4.372;2022-10-16T12:21:06;4.75;;;1.52;;
23358;SDS011;11851;50.796;4.372;2022-10-16T12:23:45;2.20;;;0.90;;
23358;SDS011;11851;50.796;4.372;2022-10-16T12:26:13;3.80;;;0.77;;
23358;SDS011;11851;50.796;4.372;2022-10-16T12:28:39;6.90;;;1.35;;
23358;SDS011;11851;50.796;4.372;2022-10-16T12:31:06;3.85;;;0.93;;
23358;SDS011;11851;50.796;4.372;2022-10-16T12:33:42;4.32;;;1.00;;
23358;SDS011;11851;50.796;4.372;2022-10-16T12:36:31;3.13;;;1.00;;
23358;SDS011;11851;50.796;4.372;2022-10-16T12:38:59;4.72;;;1.00;;
23358;SDS011;11851;50.796;4.372;2022-10-16T12:41:30;5.45;;;1.20;;
23358;SDS011;11851;50.796;4.372;2022-10-16T12:43:56;3.92;;;1.00;;
23358;SDS011;11851;50.796;4.372;2022-10-16T12:46:44;4.20;;;0.80;;
23358;SDS011;11851;50.796;4.372;2022-10-16T12:51:37;3.08;;;1.25;;
23358;SDS011;11851;50.796;4.372;2022-10-16T13:13:18;6.53;;;1.20;;
23358;SDS011;11851;50.796;4.372;2022-10-16T13:23:47;4.80;;;1.00;;
23358;SDS011;11851;50.796;4.372;2022-10-16T13:26:35;6.72;;;1.00;;
23358;SDS011;11851;50.796;4.372;2022-10-16T13:29:10;4.60;;;1.00;;
23358;SDS011;11851;50.796;4.372;2022-10-16T13:31:38;4.65;;;1.30;;
23358;SDS011;11851;50.796;4.372;2022-10-16T13:34:05;6.30;;;1.35;;
23358;SDS011;11851;50.796;4.372;2022-10-16T13:37:15;3.58;;;1.10;;
23358;SDS011;11851;50.796;4.372;2022-10-16T13:39:41;4.65;;;0.98;;
23358;SDS011;11851;50.796;4.372;2022-10-16T13:42:23;5.38;;;1.00;;
23358;SDS011;11851;50.796;4.372;2022-10-16T13:44:52;3.53;;;1.27;;
23358;SDS011;11851;50.796;4.372;2022-10-16T13:47:20;4.05;;;1.13;;
23358;SDS011;11851;50.796;4.372;2022-10-16T13:49:58;4.72;;;0.77;;
23358;SDS011;11851;50.796;4.372;2022-10-16T13:52:25;5.60;;;1.25;;
23358;SDS011;11851;50.796;4.372;2022-10-16T13:54:52;5.82;;;1.15;;
23358;SDS011;11851;50.796;4.372;2022-10-16T13:57:21;2.95;;;0.82;;
23358;SDS011;11851;50.796;4.372;2022-10-16T13:59:49;5.25;;;0.90;;
23358;SDS011;11851;50.796;4.372;2022-10-16T14:04:41;2.80;;;0.90;;
23358;SDS011;11851;50.796;4.372;2022-10-16T14:07:12;5.55;;;0.90;;
23358;SDS011;11851;50.796;4.372;2022-10-16T14:10:00;5.70;;;1.10;;
23358;SDS011;11851;50.796;4.372;2022-10-16T14:12:29;8.27;;;1.40;;
23358;SDS011;11851;50.796;4.372;2022-10-16T14:14:55;4.15;;;1.20;;
23358;SDS011;11851;50.796;4.372;2022-10-16T14:19:55;7.53;;;1.30;;
23358;SDS011;11851;50.796;4.372;2022-10-16T14:24:55;8.97;;;1.50;;
23358;SDS011;11851;50.796;4.372;2022-10-16T14:27:31;3.35;;;1.17;;
23358;SDS011;11851;50.796;4.372;2022-10-16T14:30:11;7.30;;;1.20;;
23358;SDS011;11851;50.796;4.372;2022-10-16T14:32:39;8.82;;;1.65;;
23358;SDS011;11851;50.796;4.372;2022-10-16T14:35:22;5.70;;;1.33;;
23358;SDS011;11851;50.796;4.372;2022-10-16T14:38:02;6.65;;;1.23;;
23358;SDS011;11851;50.796;4.372;2022-10-16T14:40:37;5.22;;;1.25;;
23358;SDS011;11851;50.796;4.372;2022-10-16T14:43:03;6.00;;;1.45;;
23358;SDS011;11851;50.796;4.372;2022-10-16T14:45:31;4.93;;;1.25;;
23358;SDS011;11851;50.796;4.372;2022-10-16T14:48:03;5.25;;;1.30;;
23358;SDS011;11851;50.796;4.372;2022-10-16T14:50:37;4.97;;;1.27;;
23358;SDS011;11851;50.796;4.372;2022-10-16T14:53:07;5.25;;;1.33;;
23358;SDS011;11851;50.796;4.372;2022-10-16T14:55:37;5.78;;;1.50;;
23358;SDS011;11851;50.796;4.372;2022-10-16T14:58:03;5.53;;;1.15;;
23358;SDS011;11851;50.796;4.372;2022-10-16T15:00:29;4.10;;;1.10;;
23358;SDS011;11851;50.796;4.372;2022-10-16T15:02:55;4.55;;;1.00;;
23358;SDS011;11851;50.796;4.372;2022-10-16T15:07:51;2.28;;;1.13;;
23358;SDS011;11851;50.796;4.372;2022-10-16T15:10:18;5.47;;;1.20;;
23358;SDS011;11851;50.796;4.372;2022-10-16T15:12:46;7.82;;;1.30;;
23358;SDS011;11851;50.796;4.372;2022-10-16T15:17:46;7.35;;;1.42;;
23358;SDS011;11851;50.796;4.372;2022-10-16T15:20:12;5.70;;;1.70;;
23358;SDS011;11851;50.796;4.372;2022-10-16T15:22:38;4.55;;;1.38;;
23358;SDS011;11851;50.796;4.372;2022-10-16T15:25:10;6.97;;;1.83;;
23358;SDS011;11851;50.796;4.372;2022-10-16T15:28:04;10.38;;;2.10;;
23358;SDS011;11851;50.796;4.372;2022-10-16T15:30:31;6.60;;;1.70;;
23358;SDS011;11851;50.796;4.372;2022-10-16T15:32:58;7.80;;;1.55;;
23358;SDS011;11851;50.796;4.372;2022-10-16T15:35:23;6.97;;;1.50;;
23358;SDS011;11851;50.796;4.372;2022-10-16T15:37:49;5.78;;;1.42;;
23358;SDS011;11851;50.796;4.372;2022-10-16T15:40:16;7.28;;;1.55;;
23358;SDS011;11851;50.796;4.372;2022-10-16T15:42:43;3.85;;;1.70;;
23358;SDS011;11851;50.796;4.372;2022-10-16T15:45:10;9.25;;;2.00;;
23358;SDS011;11851;50.796;4.372;2022-10-16T15:47:37;8.00;;;2.00;;
23358;SDS011;11851;50.796;4.372;2022-10-16T15:50:03;6.38;;;2.00;;
23358;SDS011;11851;50.796;4.372;2022-10-16T15:52:29;8.48;;;1.77;;
23358;SDS011;11851;50.796;4.372;2022-10-16T15:54:56;7.68;;;2.42;;
23358;SDS011;11851;50.796;4.372;2022-10-16T15:57:22;6.80;;;2.08;;
23358;SDS011;11851;50.796;4.372;2022-10-16T15:59:49;15.35;;;3.10;;
23358;SDS011;11851;50.796;4.372;2022-10-16T16:02:14;7.88;;;2.90;;
23358;SDS011;11851;50.796;4.372;2022-10-16T16:04:40;5.78;;;2.00;;
23358;SDS011;11851;50.796;4.372;2022-10-16T16:07:06;10.38;;;2.90;;
23358;SDS011;11851;50.796;4.372;2022-10-16T16:09:34;14.05;;;3.97;;
23358;SDS011;11851;50.796;4.372;2022-10-16T16:12:00;9.88;;;4.50;;
23358;SDS011;11851;50.796;4.372;2022-10-16T16:14:26;17.60;;;4.35;;
23358;SDS011;11851;50.796;4.372;2022-10-16T16:16:55;10.00;;;3.90;;
23358;SDS011;11851;50.796;4.372;2022-10-16T16:19:21;14.68;;;3.85;;
23358;SDS011;11851;50.796;4.372;2022-10-16T16:21:47;12.10;;;3.53;;
23358;SDS011;11851;50.796;4.372;2022-10-16T16:24:14;12.00;;;3.40;;
23358;SDS011;11851;50.796;4.372;2022-10-16T16:26:40;7.43;;;2.80;;
23358;SDS011;11851;50.796;4.372;2022-10-16T16:29:09;10.52;;;3.30;;
23358;SDS011;11851;50.796;4.372;2022-10-16T16:31:38;10.63;;;3.50;;
23358;SDS011;11851;50.796;4.372;2022-10-16T16:34:04;14.38;;;3.17;;
23358;SDS011;11851;50.796;4.372;2022-10-16T16:36:33;10.50;;;3.17;;
23358;SDS011;11851;50.796;4.372;2022-10-16T16:39:01;9.05;;;2.60;;
23358;SDS011;11851;50.796;4.372;2022-10-16T16:41:28;11.52;;;3.05;;
23358;SDS011;11851;50.796;4.372;2022-10-16T16:43:55;8.52;;;2.60;;
23358;SDS011;11851;50.796;4.372;2022-10-16T16:46:26;10.43;;;2.43;;
23358;SDS011;11851;50.796;4.372;2022-10-16T16:48:52;10.20;;;2.08;;
23358;SDS011;11851;50.796;4.372;2022-10-16T16:51:20;9.70;;;2.10;;
23358;SDS011;11851;50.796;4.372;2022-10-16T16:53:47;6.63;;;2.47;;
23358;SDS011;11851;50.796;4.372;2022-10-16T16:56:14;5.80;;;2.22;;
23358;SDS011;11851;50.796;4.372;2022-10-16T16:58:41;8.43;;;2.83;;
23358;SDS011;11851;50.796;4.372;2022-10-16T17:01:07;10.57;;;4.25;;
23358;SDS011;11851;50.796;4.372;2022-10-16T17:03:35;13.27;;;4.80;;
23358;SDS011;11851;50.796;4.372;2022-10-16T17:06:02;19.90;;;4.80;;
23358;SDS011;11851;50.796;4.372;2022-10-16T17:08:30;15.30;;;5.07;;
23358;SDS011;11851;50.796;4.372;2022-10-16T17:10:56;14.57;;;5.05;;
23358;SDS011;11851;50.796;4.372;2022-10-16T17:13:23;12.35;;;5.60;;
23358;SDS011;11851;50.796;4.372;2022-10-16T17:15:51;22.10;;;5.82;;
23358;SDS011;11851;50.796;4.372;2022-10-16T17:18:18;18.45;;;5.70;;